sensor_id;sensor_type;location;lat;lon;timestamp;P1;durP1;ratioP1;P2;durP2;ratioP2
43449;SDS011;29041;42.266;23.110;2022-07-12T00:02:09;2.40;;;2.20;;
43449;SDS011;29041;42.266;23.110;2022-07-12T00:04:56;2.55;;;2.17;;
43449;SDS011;29041;42.266;23.110;2022-07-12T00:07:43;2.17;;;1.98;;
43449;SDS011;29041;42.266;23.110;2022-07-12T00:10:32;2.50;;;2.30;;
43449;SDS011;29041;42.266;23.110;2022-07-12T00:13:19;2.30;;;2.10;;
43449;SDS011;29041;42.266;23.110;2022-07-12T00:16:06;3.47;;;2.35;;
43449;SDS011;29041;42.266;23.110;2022-07-12T00:18:54;2.55;;;2.33;;
43449;SDS011;29041;42.266;23.110;2022-07-12T00:21:41;2.83;;;2.40;;
43449;SDS011;29041;42.266;23.110;2022-07-12T00:24:28;2.83;;;2.30;;
43449;SDS011;29041;42.266;23.110;2022-07-12T00:27:16;2.95;;;2.75;;
43449;SDS011;29041;42.266;23.110;2022-07-12T00:30:04;2.95;;;2.45;;
43449;SDS011;29041;42.266;23.110;2022-07-12T00:32:52;2.65;;;2.35;;
43449;SDS011;29041;42.266;23.110;2022-07-12T00:35:39;4.65;;;2.65;;
43449;SDS011;29041;42.266;23.110;2022-07-12T00:38:27;3.00;;;2.78;;
43449;SDS011;29041;42.266;23.110;2022-07-12T00:41:14;3.28;;;2.38;;
43449;SDS011;29041;42.266;23.110;2022-07-12T00:44:03;2.28;;;2.08;;
43449;SDS011;29041;42.266;23.110;2022-07-12T00:46:50;3.78;;;2.28;;
43449;SDS011;29041;42.266;23.110;2022-07-12T00:49:37;2.58;;;2.22;;
43449;SDS011;29041;42.266;23.110;2022-07-12T00:52:25;3.88;;;2.65;;
43449;SDS011;29041;42.266;23.110;2022-07-12T00:55:12;4.07;;;2.50;;
43449;SDS011;29041;42.266;23.110;2022-07-12T00:58:00;4.43;;;2.45;;
43449;SDS011;29041;42.266;23.110;2022-07-12T01:00:49;2.30;;;2.10;;
43449;SDS011;29041;42.266;23.110;2022-07-12T01:03:37;2.90;;;2.70;;
43449;SDS011;29041;42.266;23.110;2022-07-12T01:06:24;3.03;;;2.38;;
43449;SDS011;29041;42.266;23.110;2022-07-12T01:09:13;2.67;;;2.47;;
43449;SDS011;29041;42.266;23.110;2022-07-12T01:12:00;3.92;;;2.70;;
43449;SDS011;29041;42.266;23.110;2022-07-12T01:14:49;3.35;;;2.88;;
43449;SDS011;29041;42.266;23.110;2022-07-12T01:17:38;4.35;;;2.50;;
43449;SDS011;29041;42.266;23.110;2022-07-12T01:20:26;3.58;;;2.50;;
43449;SDS011;29041;42.266;23.110;2022-07-12T01:23:16;2.97;;;2.70;;
43449;SDS011;29041;42.266;23.110;2022-07-12T01:26:04;2.72;;;2.53;;
43449;SDS011;29041;42.266;23.110;2022-07-12T01:28:51;3.53;;;2.72;;
43449;SDS011;29041;42.266;23.110;2022-07-12T01:31:40;3.03;;;2.72;;
43449;SDS011;29041;42.266;23.110;2022-07-12T01:34:27;2.67;;;2.47;;
43449;SDS011;29041;42.266;23.110;2022-07-12T01:37:15;6.85;;;2.97;;
43449;SDS011;29041;42.266;23.110;2022-07-12T01:40:06;4.22;;;3.50;;
43449;SDS011;29041;42.266;23.110;2022-07-12T01:42:55;3.20;;;2.90;;
43449;SDS011;29041;42.266;23.110;2022-07-12T01:45:43;2.67;;;2.47;;
43449;SDS011;29041;42.266;23.110;2022-07-12T01:48:30;3.45;;;3.15;;
43449;SDS011;29041;42.266;23.110;2022-07-12T01:51:17;2.83;;;2.60;;
43449;SDS011;29041;42.266;23.110;2022-07-12T01:54:05;3.35;;;3.00;;
43449;SDS011;29041;42.266;23.110;2022-07-12T01:56:55;4.78;;;3.38;;
43449;SDS011;29041;42.266;23.110;2022-07-12T01:59:42;3.63;;;2.90;;
43449;SDS011;29041;42.266;23.110;2022-07-12T02:02:30;3.33;;;3.03;;
43449;SDS011;29041;42.266;23.110;2022-07-12T02:05:18;3.30;;;3.00;;
43449;SDS011;29041;42.266;23.110;2022-07-12T02:08:05;3.40;;;3.10;;
43449;SDS011;29041;42.266;23.110;2022-07-12T02:10:53;2.83;;;2.63;;
43449;SDS011;29041;42.266;23.110;2022-07-12T02:13:41;3.00;;;2.80;;
43449;SDS011;29041;42.266;23.110;2022-07-12T02:16:28;3.38;;;2.67;;
43449;SDS011;29041;42.266;23.110;2022-07-12T02:19:16;3.00;;;2.70;;
43449;SDS011;29041;42.266;23.110;2022-07-12T02:22:03;3.33;;;3.03;;
43449;SDS011;29041;42.266;23.110;2022-07-12T02:24:50;6.20;;;2.70;;
43449;SDS011;29041;42.266;23.110;2022-07-12T02:27:38;3.60;;;3.30;;
43449;SDS011;29041;42.266;23.110;2022-07-12T02:30:27;3.58;;;3.28;;
43449;SDS011;29041;42.266;23.110;2022-07-12T02:33:15;3.55;;;2.90;;
43449;SDS011;29041;42.266;23.110;2022-07-12T02:36:02;4.88;;;2.88;;
43449;SDS011;29041;42.266;23.110;2022-07-12T02:38:50;7.40;;;3.35;;
43449;SDS011;29041;42.266;23.110;2022-07-12T02:41:37;3.28;;;2.97;;
43449;SDS011;29041;42.266;23.110;2022-07-12T02:44:25;2.80;;;2.42;;
43449;SDS011;29041;42.266;23.110;2022-07-12T02:47:13;2.92;;;2.65;;
43449;SDS011;29041;42.266;23.110;2022-07-12T02:50:00;3.53;;;2.80;;
43449;SDS011;29041;42.266;23.110;2022-07-12T02:52:48;3.85;;;3.00;;
43449;SDS011;29041;42.266;23.110;2022-07-12T02:55:35;4.25;;;3.38;;
43449;SDS011;29041;42.266;23.110;2022-07-12T02:58:23;3.67;;;2.92;;
43449;SDS011;29041;42.266;23.110;2022-07-12T03:01:11;3.28;;;2.97;;
43449;SDS011;29041;42.266;23.110;2022-07-12T03:04:00;3.90;;;3.35;;
43449;SDS011;29041;42.266;23.110;2022-07-12T03:06:48;4.22;;;3.55;;
43449;SDS011;29041;42.266;23.110;2022-07-12T03:09:35;3.83;;;3.40;;
43449;SDS011;29041;42.266;23.110;2022-07-12T03:12:22;5.57;;;3.47;;
43449;SDS011;29041;42.266;23.110;2022-07-12T03:15:11;4.43;;;3.45;;
43449;SDS011;29041;42.266;23.110;2022-07-12T03:17:58;5.13;;;3.47;;
43449;SDS011;29041;42.266;23.110;2022-07-12T03:20:48;3.58;;;3.28;;
43449;SDS011;29041;42.266;23.110;2022-07-12T03:23:35;3.63;;;3.33;;
43449;SDS011;29041;42.266;23.110;2022-07-12T03:26:27;3.72;;;3.33;;
43449;SDS011;29041;42.266;23.110;2022-07-12T03:29:15;5.67;;;3.57;;
43449;SDS011;29041;42.266;23.110;2022-07-12T03:32:02;6.45;;;4.10;;
43449;SDS011;29041;42.266;23.110;2022-07-12T03:34:51;4.43;;;3.15;;
43449;SDS011;29041;42.266;23.110;2022-07-12T03:37:41;7.53;;;3.85;;
43449;SDS011;29041;42.266;23.110;2022-07-12T03:40:30;4.43;;;4.03;;
43449;SDS011;29041;42.266;23.110;2022-07-12T03:43:19;3.85;;;2.97;;
43449;SDS011;29041;42.266;23.110;2022-07-12T03:46:12;5.25;;;3.30;;
43449;SDS011;29041;42.266;23.110;2022-07-12T03:48:59;6.38;;;3.63;;
43449;SDS011;29041;42.266;23.110;2022-07-12T03:51:46;4.25;;;3.42;;
43449;SDS011;29041;42.266;23.110;2022-07-12T03:54:35;7.10;;;3.45;;
43449;SDS011;29041;42.266;23.110;2022-07-12T03:57:22;3.42;;;3.13;;
43449;SDS011;29041;42.266;23.110;2022-07-12T04:00:10;5.90;;;3.60;;
43449;SDS011;29041;42.266;23.110;2022-07-12T04:02:58;7.40;;;2.90;;
43449;SDS011;29041;42.266;23.110;2022-07-12T04:05:45;6.05;;;3.40;;
43449;SDS011;29041;42.266;23.110;2022-07-12T04:08:32;5.78;;;3.83;;
43449;SDS011;29041;42.266;23.110;2022-07-12T04:11:21;4.40;;;3.38;;
43449;SDS011;29041;42.266;23.110;2022-07-12T04:14:08;3.60;;;3.03;;
43449;SDS011;29041;42.266;23.110;2022-07-12T04:17:01;5.97;;;3.22;;
43449;SDS011;29041;42.266;23.110;2022-07-12T04:19:48;4.75;;;3.30;;
43449;SDS011;29041;42.266;23.110;2022-07-12T04:22:35;8.30;;;3.55;;
43449;SDS011;29041;42.266;23.110;2022-07-12T04:25:22;5.40;;;4.55;;
43449;SDS011;29041;42.266;23.110;2022-07-12T04:28:12;10.35;;;5.13;;
43449;SDS011;29041;42.266;23.110;2022-07-12T04:30:59;5.03;;;3.60;;
43449;SDS011;29041;42.266;23.110;2022-07-12T04:33:46;5.63;;;3.70;;
43449;SDS011;29041;42.266;23.110;2022-07-12T04:36:34;4.80;;;3.33;;
43449;SDS011;29041;42.266;23.110;2022-07-12T04:39:21;6.13;;;3.28;;
43449;SDS011;29041;42.266;23.110;2022-07-12T04:42:09;4.22;;;3.60;;
43449;SDS011;29041;42.266;23.110;2022-07-12T04:44:57;4.72;;;3.13;;
43449;SDS011;29041;42.266;23.110;2022-07-12T04:47:44;5.28;;;3.10;;
43449;SDS011;29041;42.266;23.110;2022-07-12T04:50:31;7.90;;;3.92;;
43449;SDS011;29041;42.266;23.110;2022-07-12T04:53:19;7.25;;;3.30;;
43449;SDS011;29041;42.266;23.110;2022-07-12T04:56:06;7.30;;;3.35;;
43449;SDS011;29041;42.266;23.110;2022-07-12T04:58:53;5.53;;;3.35;;
43449;SDS011;29041;42.266;23.110;2022-07-12T05:01:42;4.50;;;2.90;;
43449;SDS011;29041;42.266;23.110;2022-07-12T05:04:31;5.97;;;3.70;;
43449;SDS011;29041;42.266;23.110;2022-07-12T05:07:24;6.38;;;3.35;;
43449;SDS011;29041;42.266;23.110;2022-07-12T05:10:11;6.03;;;3.42;;
43449;SDS011;29041;42.266;23.110;2022-07-12T05:12:58;7.03;;;3.30;;
43449;SDS011;29041;42.266;23.110;2022-07-12T05:15:45;11.07;;;3.72;;
43449;SDS011;29041;42.266;23.110;2022-07-12T05:18:34;5.25;;;3.30;;
43449;SDS011;29041;42.266;23.110;2022-07-12T05:21:21;7.00;;;3.78;;
43449;SDS011;29041;42.266;23.110;2022-07-12T05:24:09;6.20;;;3.85;;
43449;SDS011;29041;42.266;23.110;2022-07-12T05:26:56;7.47;;;3.45;;
43449;SDS011;29041;42.266;23.110;2022-07-12T05:29:43;6.57;;;3.50;;
43449;SDS011;29041;42.266;23.110;2022-07-12T05:32:30;5.13;;;3.17;;
43449;SDS011;29041;42.266;23.110;2022-07-12T05:35:19;6.43;;;3.85;;
43449;SDS011;29041;42.266;23.110;2022-07-12T05:38:06;5.35;;;3.13;;
43449;SDS011;29041;42.266;23.110;2022-07-12T05:40:53;4.65;;;3.05;;
43449;SDS011;29041;42.266;23.110;2022-07-12T05:43:41;7.53;;;3.13;;
43449;SDS011;29041;42.266;23.110;2022-07-12T05:46:29;7.53;;;3.50;;
43449;SDS011;29041;42.266;23.110;2022-07-12T05:49:16;6.25;;;3.00;;
43449;SDS011;29041;42.266;23.110;2022-07-12T05:52:05;4.32;;;1.95;;
43449;SDS011;29041;42.266;23.110;2022-07-12T05:55:10;4.43;;;1.80;;
43449;SDS011;29041;42.266;23.110;2022-07-12T05:57:59;2.10;;;1.48;;
43449;SDS011;29041;42.266;23.110;2022-07-12T06:00:47;3.95;;;1.50;;
43449;SDS011;29041;42.266;23.110;2022-07-12T06:03:35;3.22;;;1.50;;
43449;SDS011;29041;42.266;23.110;2022-07-12T06:06:23;4.13;;;1.48;;
43449;SDS011;29041;42.266;23.110;2022-07-12T06:09:11;4.32;;;1.60;;
43449;SDS011;29041;42.266;23.110;2022-07-12T06:11:58;4.00;;;1.30;;
43449;SDS011;29041;42.266;23.110;2022-07-12T06:14:46;4.13;;;1.90;;
43449;SDS011;29041;42.266;23.110;2022-07-12T06:17:33;2.35;;;1.30;;
43449;SDS011;29041;42.266;23.110;2022-07-12T06:20:21;2.05;;;1.67;;
43449;SDS011;29041;42.266;23.110;2022-07-12T06:23:08;2.90;;;1.63;;
43449;SDS011;29041;42.266;23.110;2022-07-12T06:25:57;3.17;;;1.20;;
43449;SDS011;29041;42.266;23.110;2022-07-12T06:28:44;1.67;;;1.20;;
43449;SDS011;29041;42.266;23.110;2022-07-12T06:31:31;3.22;;;1.00;;
43449;SDS011;29041;42.266;23.110;2022-07-12T06:34:18;2.55;;;1.08;;
43449;SDS011;29041;42.266;23.110;2022-07-12T06:37:05;1.58;;;1.23;;
43449;SDS011;29041;42.266;23.110;2022-07-12T06:39:54;2.30;;;1.02;;
43449;SDS011;29041;42.266;23.110;2022-07-12T06:42:43;5.72;;;1.15;;
43449;SDS011;29041;42.266;23.110;2022-07-12T06:45:35;3.75;;;1.17;;
43449;SDS011;29041;42.266;23.110;2022-07-12T06:48:22;4.90;;;1.50;;
43449;SDS011;29041;42.266;23.110;2022-07-12T06:51:10;1.70;;;1.10;;
43449;SDS011;29041;42.266;23.110;2022-07-12T06:53:57;3.15;;;1.20;;
43449;SDS011;29041;42.266;23.110;2022-07-12T06:56:44;2.88;;;1.15;;
43449;SDS011;29041;42.266;23.110;2022-07-12T06:59:33;5.38;;;1.65;;
43449;SDS011;29041;42.266;23.110;2022-07-12T07:02:20;4.07;;;1.30;;
43449;SDS011;29041;42.266;23.110;2022-07-12T07:05:07;6.50;;;0.90;;
43449;SDS011;29041;42.266;23.110;2022-07-12T07:07:56;4.00;;;1.10;;
43449;SDS011;29041;42.266;23.110;2022-07-12T07:10:43;3.88;;;1.17;;
43449;SDS011;29041;42.266;23.110;2022-07-12T07:13:30;2.45;;;0.82;;
43449;SDS011;29041;42.266;23.110;2022-07-12T07:16:19;2.50;;;0.73;;
43449;SDS011;29041;42.266;23.110;2022-07-12T07:19:09;2.15;;;0.80;;
43449;SDS011;29041;42.266;23.110;2022-07-12T07:21:56;2.75;;;0.90;;
43449;SDS011;29041;42.266;23.110;2022-07-12T07:24:44;4.53;;;1.23;;
43449;SDS011;29041;42.266;23.110;2022-07-12T07:27:32;1.92;;;1.02;;
43449;SDS011;29041;42.266;23.110;2022-07-12T07:30:19;3.03;;;1.02;;
43449;SDS011;29041;42.266;23.110;2022-07-12T07:33:25;2.33;;;0.90;;
43449;SDS011;29041;42.266;23.110;2022-07-12T07:36:13;5.88;;;1.00;;
43449;SDS011;29041;42.266;23.110;2022-07-12T07:39:00;2.40;;;0.98;;
43449;SDS011;29041;42.266;23.110;2022-07-12T07:41:47;7.78;;;1.67;;
43449;SDS011;29041;42.266;23.110;2022-07-12T07:44:35;3.85;;;0.90;;
43449;SDS011;29041;42.266;23.110;2022-07-12T07:47:22;3.78;;;0.73;;
43449;SDS011;29041;42.266;23.110;2022-07-12T07:50:10;4.75;;;0.82;;
43449;SDS011;29041;42.266;23.110;2022-07-12T07:52:58;3.80;;;0.88;;
43449;SDS011;29041;42.266;23.110;2022-07-12T07:55:45;4.70;;;0.90;;
43449;SDS011;29041;42.266;23.110;2022-07-12T07:58:32;2.38;;;0.88;;
43449;SDS011;29041;42.266;23.110;2022-07-12T08:01:19;7.55;;;1.20;;
43449;SDS011;29041;42.266;23.110;2022-07-12T08:04:26;2.45;;;1.00;;
43449;SDS011;29041;42.266;23.110;2022-07-12T08:07:15;2.17;;;0.93;;
43449;SDS011;29041;42.266;23.110;2022-07-12T08:10:02;3.33;;;0.80;;
43449;SDS011;29041;42.266;23.110;2022-07-12T08:12:50;1.63;;;0.80;;
43449;SDS011;29041;42.266;23.110;2022-07-12T08:15:37;4.72;;;0.73;;
43449;SDS011;29041;42.266;23.110;2022-07-12T08:18:24;3.00;;;1.00;;
43449;SDS011;29041;42.266;23.110;2022-07-12T08:21:12;5.50;;;1.27;;
43449;SDS011;29041;42.266;23.110;2022-07-12T08:24:00;4.45;;;1.52;;
43449;SDS011;29041;42.266;23.110;2022-07-12T08:26:52;3.78;;;0.88;;
43449;SDS011;29041;42.266;23.110;2022-07-12T08:29:39;4.53;;;0.95;;
43449;SDS011;29041;42.266;23.110;2022-07-12T08:32:27;2.30;;;1.00;;
43449;SDS011;29041;42.266;23.110;2022-07-12T08:35:15;2.42;;;0.80;;
43449;SDS011;29041;42.266;23.110;2022-07-12T08:38:02;1.98;;;0.75;;
43449;SDS011;29041;42.266;23.110;2022-07-12T08:40:51;8.02;;;1.00;;
43449;SDS011;29041;42.266;23.110;2022-07-12T08:43:38;3.83;;;0.95;;
43449;SDS011;29041;42.266;23.110;2022-07-12T08:46:25;2.53;;;0.60;;
43449;SDS011;29041;42.266;23.110;2022-07-12T08:49:12;2.15;;;0.93;;
43449;SDS011;29041;42.266;23.110;2022-07-12T08:52:00;2.63;;;1.20;;
43449;SDS011;29041;42.266;23.110;2022-07-12T08:54:51;3.50;;;0.80;;
43449;SDS011;29041;42.266;23.110;2022-07-12T08:57:40;0.90;;;0.68;;
43449;SDS011;29041;42.266;23.110;2022-07-12T09:00:28;2.55;;;0.75;;
43449;SDS011;29041;42.266;23.110;2022-07-12T09:03:17;4.15;;;0.88;;
43449;SDS011;29041;42.266;23.110;2022-07-12T09:06:04;3.35;;;1.08;;
43449;SDS011;29041;42.266;23.110;2022-07-12T09:08:51;4.35;;;1.33;;
43449;SDS011;29041;42.266;23.110;2022-07-12T09:11:39;3.83;;;1.10;;
43449;SDS011;29041;42.266;23.110;2022-07-12T09:14:35;2.58;;;0.90;;
43449;SDS011;29041;42.266;23.110;2022-07-12T09:17:22;6.35;;;0.85;;
43449;SDS011;29041;42.266;23.110;2022-07-12T09:20:09;2.50;;;0.88;;
43449;SDS011;29041;42.266;23.110;2022-07-12T09:22:58;2.08;;;1.00;;
43449;SDS011;29041;42.266;23.110;2022-07-12T09:25:47;6.30;;;1.83;;
43449;SDS011;29041;42.266;23.110;2022-07-12T09:28:35;4.13;;;1.17;;
43449;SDS011;29041;42.266;23.110;2022-07-12T09:31:24;5.30;;;1.00;;
43449;SDS011;29041;42.266;23.110;2022-07-12T09:34:26;4.20;;;2.13;;
43449;SDS011;29041;42.266;23.110;2022-07-12T09:37:32;3.03;;;1.08;;
43449;SDS011;29041;42.266;23.110;2022-07-12T09:40:26;2.72;;;1.10;;
43449;SDS011;29041;42.266;23.110;2022-07-12T09:43:14;3.58;;;0.85;;
43449;SDS011;29041;42.266;23.110;2022-07-12T09:46:02;2.13;;;0.73;;
43449;SDS011;29041;42.266;23.110;2022-07-12T09:48:51;2.00;;;0.68;;
43449;SDS011;29041;42.266;23.110;2022-07-12T09:51:39;3.03;;;0.98;;
43449;SDS011;29041;42.266;23.110;2022-07-12T09:54:30;1.55;;;0.80;;
43449;SDS011;29041;42.266;23.110;2022-07-12T09:57:22;2.25;;;0.98;;
43449;SDS011;29041;42.266;23.110;2022-07-12T10:00:13;3.58;;;0.95;;
43449;SDS011;29041;42.266;23.110;2022-07-12T10:03:00;2.90;;;0.93;;
43449;SDS011;29041;42.266;23.110;2022-07-12T10:05:54;2.95;;;0.88;;
43449;SDS011;29041;42.266;23.110;2022-07-12T10:08:42;3.83;;;0.80;;
43449;SDS011;29041;42.266;23.110;2022-07-12T10:11:30;1.33;;;0.70;;
43449;SDS011;29041;42.266;23.110;2022-07-12T10:14:18;3.22;;;0.88;;
43449;SDS011;29041;42.266;23.110;2022-07-12T10:17:06;2.22;;;0.80;;
43449;SDS011;29041;42.266;23.110;2022-07-12T10:20:14;1.90;;;0.60;;
43449;SDS011;29041;42.266;23.110;2022-07-12T10:26:39;2.65;;;0.80;;
43449;SDS011;29041;42.266;23.110;2022-07-12T10:29:27;1.45;;;0.70;;
43449;SDS011;29041;42.266;23.110;2022-07-12T10:32:19;3.03;;;0.60;;
43449;SDS011;29041;42.266;23.110;2022-07-12T10:35:13;4.10;;;0.90;;
43449;SDS011;29041;42.266;23.110;2022-07-12T10:38:16;2.30;;;0.70;;
43449;SDS011;29041;42.266;23.110;2022-07-12T10:41:16;1.58;;;0.52;;
43449;SDS011;29041;42.266;23.110;2022-07-12T10:44:06;8.20;;;1.48;;
43449;SDS011;29041;42.266;23.110;2022-07-12T10:46:57;3.80;;;0.90;;
43449;SDS011;29041;42.266;23.110;2022-07-12T10:49:46;4.25;;;1.13;;
43449;SDS011;29041;42.266;23.110;2022-07-12T10:52:34;2.03;;;1.02;;
43449;SDS011;29041;42.266;23.110;2022-07-12T10:55:22;3.38;;;0.90;;
43449;SDS011;29041;42.266;23.110;2022-07-12T10:58:09;1.40;;;0.50;;
43449;SDS011;29041;42.266;23.110;2022-07-12T11:00:58;2.67;;;0.73;;
43449;SDS011;29041;42.266;23.110;2022-07-12T11:03:48;2.92;;;0.50;;
43449;SDS011;29041;42.266;23.110;2022-07-12T11:06:38;2.83;;;0.68;;
43449;SDS011;29041;42.266;23.110;2022-07-12T11:09:26;2.35;;;0.60;;
43449;SDS011;29041;42.266;23.110;2022-07-12T11:12:14;1.67;;;0.57;;
43449;SDS011;29041;42.266;23.110;2022-07-12T11:15:02;2.97;;;0.65;;
43449;SDS011;29041;42.266;23.110;2022-07-12T11:17:53;5.13;;;0.65;;
43449;SDS011;29041;42.266;23.110;2022-07-12T11:20:40;2.88;;;1.15;;
43449;SDS011;29041;42.266;23.110;2022-07-12T11:23:28;1.98;;;1.15;;
43449;SDS011;29041;42.266;23.110;2022-07-12T11:26:16;1.92;;;0.40;;
43449;SDS011;29041;42.266;23.110;2022-07-12T11:29:03;2.92;;;0.73;;
43449;SDS011;29041;42.266;23.110;2022-07-12T11:31:54;2.03;;;0.60;;
43449;SDS011;29041;42.266;23.110;2022-07-12T11:34:52;1.13;;;0.35;;
43449;SDS011;29041;42.266;23.110;2022-07-12T11:37:46;1.08;;;0.45;;
43449;SDS011;29041;42.266;23.110;2022-07-12T11:40:35;2.47;;;0.70;;
43449;SDS011;29041;42.266;23.110;2022-07-12T11:43:22;2.85;;;0.60;;
43449;SDS011;29041;42.266;23.110;2022-07-12T11:46:10;1.50;;;0.30;;
43449;SDS011;29041;42.266;23.110;2022-07-12T11:48:58;1.25;;;0.32;;
43449;SDS011;29041;42.266;23.110;2022-07-12T11:51:47;1.80;;;0.68;;
43449;SDS011;29041;42.266;23.110;2022-07-12T11:54:34;0.55;;;0.30;;
43449;SDS011;29041;42.266;23.110;2022-07-12T11:57:22;1.48;;;0.25;;
43449;SDS011;29041;42.266;23.110;2022-07-12T12:00:14;2.40;;;0.45;;
43449;SDS011;29041;42.266;23.110;2022-07-12T12:03:05;0.63;;;0.40;;
43449;SDS011;29041;42.266;23.110;2022-07-12T12:05:53;3.92;;;0.50;;
43449;SDS011;29041;42.266;23.110;2022-07-12T12:08:43;0.90;;;0.43;;
43449;SDS011;29041;42.266;23.110;2022-07-12T12:11:31;1.45;;;0.20;;
43449;SDS011;29041;42.266;23.110;2022-07-12T12:14:18;0.70;;;0.38;;
43449;SDS011;29041;42.266;23.110;2022-07-12T12:17:11;3.20;;;0.47;;
43449;SDS011;29041;42.266;23.110;2022-07-12T12:20:07;2.08;;;0.40;;
43449;SDS011;29041;42.266;23.110;2022-07-12T12:22:55;4.22;;;0.40;;
43449;SDS011;29041;42.266;23.110;2022-07-12T12:25:44;2.13;;;0.47;;
43449;SDS011;29041;42.266;23.110;2022-07-12T12:28:40;6.68;;;0.70;;
43449;SDS011;29041;42.266;23.110;2022-07-12T12:31:28;2.53;;;0.40;;
43449;SDS011;29041;42.266;23.110;2022-07-12T12:34:15;2.90;;;0.60;;
43449;SDS011;29041;42.266;23.110;2022-07-12T12:37:03;0.90;;;0.40;;
43449;SDS011;29041;42.266;23.110;2022-07-12T12:39:50;1.13;;;0.40;;
43449;SDS011;29041;42.266;23.110;2022-07-12T12:42:39;3.20;;;0.80;;
43449;SDS011;29041;42.266;23.110;2022-07-12T12:45:26;2.97;;;0.30;;
43449;SDS011;29041;42.266;23.110;2022-07-12T12:48:17;1.17;;;0.40;;
43449;SDS011;29041;42.266;23.110;2022-07-12T12:51:06;2.60;;;0.40;;
43449;SDS011;29041;42.266;23.110;2022-07-12T12:53:54;3.50;;;0.50;;
43449;SDS011;29041;42.266;23.110;2022-07-12T12:56:42;1.65;;;0.50;;
43449;SDS011;29041;42.266;23.110;2022-07-12T12:59:31;1.17;;;0.50;;
43449;SDS011;29041;42.266;23.110;2022-07-12T13:02:19;2.08;;;0.38;;
43449;SDS011;29041;42.266;23.110;2022-07-12T13:05:09;2.35;;;0.50;;
43449;SDS011;29041;42.266;23.110;2022-07-12T13:07:56;3.13;;;1.33;;
43449;SDS011;29041;42.266;23.110;2022-07-12T13:10:44;2.00;;;0.50;;
43449;SDS011;29041;42.266;23.110;2022-07-12T13:13:32;0.65;;;0.38;;
43449;SDS011;29041;42.266;23.110;2022-07-12T13:16:21;4.95;;;0.88;;
43449;SDS011;29041;42.266;23.110;2022-07-12T13:19:09;2.33;;;0.70;;
43449;SDS011;29041;42.266;23.110;2022-07-12T13:21:57;1.38;;;0.50;;
43449;SDS011;29041;42.266;23.110;2022-07-12T13:24:44;0.57;;;0.40;;
43449;SDS011;29041;42.266;23.110;2022-07-12T13:27:32;4.00;;;0.80;;
43449;SDS011;29041;42.266;23.110;2022-07-12T13:30:20;2.88;;;0.93;;
43449;SDS011;29041;42.266;23.110;2022-07-12T13:33:09;3.20;;;0.50;;
43449;SDS011;29041;42.266;23.110;2022-07-12T13:35:56;8.18;;;1.45;;
43449;SDS011;29041;42.266;23.110;2022-07-12T13:38:44;3.60;;;0.82;;
43449;SDS011;29041;42.266;23.110;2022-07-12T13:41:31;5.13;;;0.60;;
43449;SDS011;29041;42.266;23.110;2022-07-12T13:44:18;1.73;;;0.60;;
43449;SDS011;29041;42.266;23.110;2022-07-12T13:47:06;3.05;;;1.17;;
43449;SDS011;29041;42.266;23.110;2022-07-12T13:49:54;1.35;;;0.50;;
43449;SDS011;29041;42.266;23.110;2022-07-12T13:52:41;0.90;;;0.30;;
43449;SDS011;29041;42.266;23.110;2022-07-12T13:55:30;4.03;;;0.95;;
43449;SDS011;29041;42.266;23.110;2022-07-12T13:58:17;1.75;;;0.70;;
43449;SDS011;29041;42.266;23.110;2022-07-12T14:01:04;1.13;;;0.80;;
43449;SDS011;29041;42.266;23.110;2022-07-12T14:03:52;1.60;;;0.65;;
43449;SDS011;29041;42.266;23.110;2022-07-12T14:06:41;1.52;;;0.60;;
43449;SDS011;29041;42.266;23.110;2022-07-12T14:09:28;3.00;;;0.70;;
43449;SDS011;29041;42.266;23.110;2022-07-12T14:12:16;3.53;;;0.60;;
43449;SDS011;29041;42.266;23.110;2022-07-12T14:15:03;2.13;;;0.80;;
43449;SDS011;29041;42.266;23.110;2022-07-12T14:18:05;2.70;;;0.73;;
43449;SDS011;29041;42.266;23.110;2022-07-12T14:20:52;1.50;;;0.57;;
43449;SDS011;29041;42.266;23.110;2022-07-12T14:23:41;1.98;;;0.90;;
43449;SDS011;29041;42.266;23.110;2022-07-12T14:26:30;1.85;;;0.40;;
43449;SDS011;29041;42.266;23.110;2022-07-12T14:29:17;1.67;;;0.50;;
43449;SDS011;29041;42.266;23.110;2022-07-12T14:32:04;2.95;;;0.90;;
43449;SDS011;29041;42.266;23.110;2022-07-12T14:34:52;2.33;;;0.73;;
43449;SDS011;29041;42.266;23.110;2022-07-12T14:37:39;1.35;;;0.70;;
43449;SDS011;29041;42.266;23.110;2022-07-12T14:40:27;3.63;;;0.60;;
43449;SDS011;29041;42.266;23.110;2022-07-12T14:43:15;2.15;;;1.10;;
43449;SDS011;29041;42.266;23.110;2022-07-12T14:46:02;3.38;;;0.63;;
43449;SDS011;29041;42.266;23.110;2022-07-12T14:48:49;4.40;;;1.10;;
43449;SDS011;29041;42.266;23.110;2022-07-12T14:51:36;2.35;;;0.80;;
43449;SDS011;29041;42.266;23.110;2022-07-12T14:54:23;3.15;;;0.63;;
43449;SDS011;29041;42.266;23.110;2022-07-12T14:57:12;1.48;;;0.60;;
43449;SDS011;29041;42.266;23.110;2022-07-12T14:59:59;0.88;;;0.55;;
43449;SDS011;29041;42.266;23.110;2022-07-12T15:02:46;2.17;;;0.60;;
43449;SDS011;29041;42.266;23.110;2022-07-12T15:05:33;2.00;;;0.47;;
43449;SDS011;29041;42.266;23.110;2022-07-12T15:08:21;1.65;;;0.65;;
43449;SDS011;29041;42.266;23.110;2022-07-12T15:11:08;5.68;;;0.85;;
43449;SDS011;29041;42.266;23.110;2022-07-12T15:13:56;3.10;;;1.05;;
43449;SDS011;29041;42.266;23.110;2022-07-12T15:16:44;0.93;;;0.70;;
43449;SDS011;29041;42.266;23.110;2022-07-12T15:19:31;4.82;;;0.63;;
43449;SDS011;29041;42.266;23.110;2022-07-12T15:22:18;0.82;;;0.70;;
43449;SDS011;29041;42.266;23.110;2022-07-12T15:25:05;4.15;;;0.88;;
43449;SDS011;29041;42.266;23.110;2022-07-12T15:27:53;2.00;;;0.70;;
43449;SDS011;29041;42.266;23.110;2022-07-12T15:30:41;3.40;;;0.80;;
43449;SDS011;29041;42.266;23.110;2022-07-12T15:33:28;5.55;;;1.40;;
43449;SDS011;29041;42.266;23.110;2022-07-12T15:36:16;1.33;;;0.55;;
43449;SDS011;29041;42.266;23.110;2022-07-12T15:39:03;0.98;;;0.40;;
43449;SDS011;29041;42.266;23.110;2022-07-12T15:41:51;1.90;;;0.70;;
43449;SDS011;29041;42.266;23.110;2022-07-12T15:44:38;2.08;;;0.80;;
43449;SDS011;29041;42.266;23.110;2022-07-12T15:47:28;1.10;;;0.70;;
43449;SDS011;29041;42.266;23.110;2022-07-12T15:50:16;5.68;;;1.40;;
43449;SDS011;29041;42.266;23.110;2022-07-12T15:53:03;7.50;;;2.65;;
43449;SDS011;29041;42.266;23.110;2022-07-12T15:56:19;1.02;;;0.50;;
43449;SDS011;29041;42.266;23.110;2022-07-12T15:59:06;2.42;;;0.85;;
43449;SDS011;29041;42.266;23.110;2022-07-12T16:01:53;2.78;;;0.85;;
43449;SDS011;29041;42.266;23.110;2022-07-12T16:04:42;1.98;;;0.90;;
43449;SDS011;29041;42.266;23.110;2022-07-12T16:07:29;3.90;;;0.80;;
43449;SDS011;29041;42.266;23.110;2022-07-12T16:10:16;2.30;;;0.85;;
43449;SDS011;29041;42.266;23.110;2022-07-12T16:13:04;2.80;;;1.23;;
43449;SDS011;29041;42.266;23.110;2022-07-12T16:15:51;5.38;;;4.38;;
43449;SDS011;29041;42.266;23.110;2022-07-12T16:18:38;2.25;;;0.77;;
43449;SDS011;29041;42.266;23.110;2022-07-12T16:21:26;3.10;;;1.05;;
43449;SDS011;29041;42.266;23.110;2022-07-12T16:24:14;5.57;;;1.40;;
43449;SDS011;29041;42.266;23.110;2022-07-12T16:27:01;2.85;;;0.90;;
43449;SDS011;29041;42.266;23.110;2022-07-12T16:29:48;1.00;;;0.70;;
43449;SDS011;29041;42.266;23.110;2022-07-12T16:32:35;7.05;;;1.02;;
43449;SDS011;29041;42.266;23.110;2022-07-12T16:35:23;1.63;;;0.70;;
43449;SDS011;29041;42.266;23.110;2022-07-12T16:38:11;4.15;;;0.98;;
43449;SDS011;29041;42.266;23.110;2022-07-12T16:40:59;1.90;;;0.60;;
43449;SDS011;29041;42.266;23.110;2022-07-12T16:43:46;3.40;;;1.27;;